sensor_id;sensor_type;location;lat;lon;timestamp;P1;durP1;ratioP1;P2;durP2;ratioP2
48285;SDS011;34102;47.716;10.296;2024-01-15T03:48:57;7.95;;;3.92;;
48285;SDS011;34102;47.716;10.296;2024-01-15T03:51:22;6.72;;;3.13;;
48285;SDS011;34102;47.716;10.296;2024-01-15T03:53:48;6.47;;;3.47;;
48285;SDS011;34102;47.716;10.296;2024-01-15T03:56:14;8.20;;;4.22;;
48285;SDS011;34102;47.716;10.296;2024-01-15T03:58:40;7.68;;;4.07;;
48285;SDS011;34102;47.716;10.296;2024-01-15T04:01:11;8.48;;;4.25;;
48285;SDS011;34102;47.716;10.296;2024-01-15T04:06:05;9.57;;;3.83;;
48285;SDS011;34102;47.716;10.296;2024-01-15T04:08:32;11.02;;;4.93;;
48285;SDS011;34102;47.716;10.296;2024-01-15T04:10:57;8.15;;;4.32;;
48285;SDS011;34102;47.716;10.296;2024-01-15T04:13:22;11.45;;;5.35;;
48285;SDS011;34102;47.716;10.296;2024-01-15T04:15:49;10.25;;;5.53;;
48285;SDS011;34102;47.716;10.296;2024-01-15T04:18:18;9.48;;;4.43;;
48285;SDS011;34102;47.716;10.296;2024-01-15T04:20:45;8.75;;;3.97;;
48285;SDS011;34102;47.716;10.296;2024-01-15T04:23:10;7.20;;;3.95;;
48285;SDS011;34102;47.716;10.296;2024-01-15T04:25:35;10.63;;;4.47;;
48285;SDS011;34102;47.716;10.296;2024-01-15T04:28:01;11.13;;;5.60;;
48285;SDS011;34102;47.716;10.296;2024-01-15T04:30:28;8.73;;;4.85;;
48285;SDS011;34102;47.716;10.296;2024-01-15T04:32:54;10.82;;;4.70;;
48285;SDS011;34102;47.716;10.296;2024-01-15T04:35:19;10.80;;;4.63;;
48285;SDS011;34102;47.716;10.296;2024-01-15T04:37:45;10.35;;;4.78;;
48285;SDS011;34102;47.716;10.296;2024-01-15T04:40:10;10.95;;;5.00;;
48285;SDS011;34102;47.716;10.296;2024-01-15T04:42:35;8.68;;;4.45;;
48285;SDS011;34102;47.716;10.296;2024-01-15T04:45:02;10.57;;;4.80;;
48285;SDS011;34102;47.716;10.296;2024-01-15T04:47:29;7.53;;;3.92;;
48285;SDS011;34102;47.716;10.296;2024-01-15T04:49:55;7.88;;;4.10;;
48285;SDS011;34102;47.716;10.296;2024-01-15T04:52:20;7.97;;;3.78;;
48285;SDS011;34102;47.716;10.296;2024-01-15T04:54:47;7.18;;;3.80;;
48285;SDS011;34102;47.716;10.296;2024-01-15T04:57:13;6.78;;;3.10;;
48285;SDS011;34102;47.716;10.296;2024-01-15T04:59:38;6.03;;;3.00;;
48285;SDS011;34102;47.716;10.296;2024-01-15T05:02:09;6.55;;;2.72;;
48285;SDS011;34102;47.716;10.296;2024-01-15T05:04:35;7.10;;;3.05;;
48285;SDS011;34102;47.716;10.296;2024-01-15T05:07:06;6.53;;;3.00;;
48285;SDS011;34102;47.716;10.296;2024-01-15T05:09:31;9.27;;;3.40;;
48285;SDS011;34102;47.716;10.296;2024-01-15T05:11:57;6.97;;;3.20;;
48285;SDS011;34102;47.716;10.296;2024-01-15T05:14:23;6.90;;;3.20;;
48285;SDS011;34102;47.716;10.296;2024-01-15T05:16:49;8.93;;;3.55;;
48285;SDS011;34102;47.716;10.296;2024-01-15T05:19:15;7.50;;;3.13;;
48285;SDS011;34102;47.716;10.296;2024-01-15T05:21:41;8.70;;;3.78;;
48285;SDS011;34102;47.716;10.296;2024-01-15T05:24:07;7.90;;;4.53;;
48285;SDS011;34102;47.716;10.296;2024-01-15T05:26:34;9.75;;;4.78;;
48285;SDS011;34102;47.716;10.296;2024-01-15T05:28:59;8.93;;;4.55;;
48285;SDS011;34102;47.716;10.296;2024-01-15T05:31:25;9.82;;;4.57;;
48285;SDS011;34102;47.716;10.296;2024-01-15T05:33:50;9.85;;;4.65;;
48285;SDS011;34102;47.716;10.296;2024-01-15T05:36:36;9.20;;;3.80;;
48285;SDS011;34102;47.716;10.296;2024-01-15T05:39:02;10.27;;;4.25;;
48285;SDS011;34102;47.716;10.296;2024-01-15T05:41:28;9.30;;;4.43;;
48285;SDS011;34102;47.716;10.296;2024-01-15T05:43:54;11.07;;;5.15;;
48285;SDS011;34102;47.716;10.296;2024-01-15T05:46:19;9.98;;;4.13;;
48285;SDS011;34102;47.716;10.296;2024-01-15T05:48:46;9.10;;;4.90;;
48285;SDS011;34102;47.716;10.296;2024-01-15T05:51:15;10.15;;;4.80;;
48285;SDS011;34102;47.716;10.296;2024-01-15T05:53:40;14.27;;;5.93;;
48285;SDS011;34102;47.716;10.296;2024-01-15T05:56:09;17.98;;;6.82;;
48285;SDS011;34102;47.716;10.296;2024-01-15T05:58:35;15.23;;;6.60;;
48285;SDS011;34102;47.716;10.296;2024-01-15T06:01:02;10.57;;;5.55;;
48285;SDS011;34102;47.716;10.296;2024-01-15T06:03:28;16.63;;;6.65;;
48285;SDS011;34102;47.716;10.296;2024-01-15T06:05:54;11.68;;;5.38;;
48285;SDS011;34102;47.716;10.296;2024-01-15T06:08:21;12.73;;;6.50;;
48285;SDS011;34102;47.716;10.296;2024-01-15T06:10:47;12.63;;;5.93;;
48285;SDS011;34102;47.716;10.296;2024-01-15T06:13:14;11.82;;;5.43;;
48285;SDS011;34102;47.716;10.296;2024-01-15T06:15:40;11.05;;;5.63;;
48285;SDS011;34102;47.716;10.296;2024-01-15T06:18:05;12.40;;;6.18;;
48285;SDS011;34102;47.716;10.296;2024-01-15T06:20:32;10.15;;;5.28;;
48285;SDS011;34102;47.716;10.296;2024-01-15T06:22:58;9.60;;;4.88;;
48285;SDS011;34102;47.716;10.296;2024-01-15T06:25:24;11.88;;;5.60;;
48285;SDS011;34102;47.716;10.296;2024-01-15T06:27:51;11.95;;;5.57;;
48285;SDS011;34102;47.716;10.296;2024-01-15T06:30:17;10.80;;;5.25;;
48285;SDS011;34102;47.716;10.296;2024-01-15T06:32:44;15.27;;;6.55;;
48285;SDS011;34102;47.716;10.296;2024-01-15T06:35:09;12.50;;;6.63;;
48285;SDS011;34102;47.716;10.296;2024-01-15T06:37:36;13.52;;;5.68;;
48285;SDS011;34102;47.716;10.296;2024-01-15T06:40:06;12.63;;;6.90;;
48285;SDS011;34102;47.716;10.296;2024-01-15T06:42:33;11.95;;;5.78;;
48285;SDS011;34102;47.716;10.296;2024-01-15T06:44:59;13.15;;;6.40;;
48285;SDS011;34102;47.716;10.296;2024-01-15T06:47:26;14.18;;;6.35;;
48285;SDS011;34102;47.716;10.296;2024-01-15T06:49:54;12.32;;;5.60;;
48285;SDS011;34102;47.716;10.296;2024-01-15T06:52:20;12.52;;;6.30;;
48285;SDS011;34102;47.716;10.296;2024-01-15T06:54:46;11.95;;;5.55;;
48285;SDS011;34102;47.716;10.296;2024-01-15T06:57:13;11.85;;;5.65;;
48285;SDS011;34102;47.716;10.296;2024-01-15T06:59:38;11.25;;;5.68;;
48285;SDS011;34102;47.716;10.296;2024-01-15T11:02:14;4.93;;;2.05;;
48285;SDS011;34102;47.716;10.296;2024-01-15T11:04:40;6.82;;;3.05;;
48285;SDS011;34102;47.716;10.296;2024-01-15T11:07:06;5.13;;;2.75;;
48285;SDS011;34102;47.716;10.296;2024-01-15T11:09:32;5.70;;;2.75;;
48285;SDS011;34102;47.716;10.296;2024-01-15T11:12:10;4.57;;;2.30;;
48285;SDS011;34102;47.716;10.296;2024-01-15T11:14:39;4.32;;;2.30;;
48285;SDS011;34102;47.716;10.296;2024-01-15T11:17:05;8.18;;;3.17;;
48285;SDS011;34102;47.716;10.296;2024-01-15T11:22:07;7.53;;;2.83;;
48285;SDS011;34102;47.716;10.296;2024-01-15T11:24:37;5.95;;;2.95;;
48285;SDS011;34102;47.716;10.296;2024-01-15T11:27:03;6.88;;;3.42;;
48285;SDS011;34102;47.716;10.296;2024-01-15T11:34:21;5.72;;;2.70;;
48285;SDS011;34102;47.716;10.296;2024-01-15T11:37:08;6.32;;;3.17;;
48285;SDS011;34102;47.716;10.296;2024-01-15T11:42:02;4.78;;;2.55;;
48285;SDS011;34102;47.716;10.296;2024-01-15T11:44:28;8.75;;;3.00;;
48285;SDS011;34102;47.716;10.296;2024-01-15T11:46:58;8.13;;;3.00;;
48285;SDS011;34102;47.716;10.296;2024-01-15T11:52:08;4.72;;;2.38;;
48285;SDS011;34102;47.716;10.296;2024-01-15T11:54:37;8.88;;;2.70;;
48285;SDS011;34102;47.716;10.296;2024-01-15T11:57:04;7.45;;;2.90;;
48285;SDS011;34102;47.716;10.296;2024-01-15T11:59:33;7.97;;;3.13;;
48285;SDS011;34102;47.716;10.296;2024-01-15T12:01:58;7.13;;;3.10;;
48285;SDS011;34102;47.716;10.296;2024-01-15T12:04:24;5.88;;;2.38;;
48285;SDS011;34102;47.716;10.296;2024-01-15T12:06:49;8.02;;;2.50;;
48285;SDS011;34102;47.716;10.296;2024-01-15T12:09:14;6.03;;;2.63;;
48285;SDS011;34102;47.716;10.296;2024-01-15T12:11:50;5.35;;;2.67;;
48285;SDS011;34102;47.716;10.296;2024-01-15T12:14:16;5.47;;;3.53;;
48285;SDS011;34102;47.716;10.296;2024-01-15T12:16:42;4.45;;;2.40;;
48285;SDS011;34102;47.716;10.296;2024-01-15T12:19:07;4.82;;;2.40;;
48285;SDS011;34102;47.716;10.296;2024-01-15T12:21:33;6.53;;;2.53;;
48285;SDS011;34102;47.716;10.296;2024-01-15T12:23:58;6.90;;;3.13;;
48285;SDS011;34102;47.716;10.296;2024-01-15T12:26:24;5.40;;;2.70;;
48285;SDS011;34102;47.716;10.296;2024-01-15T12:28:50;4.97;;;2.80;;
48285;SDS011;34102;47.716;10.296;2024-01-15T12:31:16;5.95;;;2.70;;
48285;SDS011;34102;47.716;10.296;2024-01-15T12:33:41;5.28;;;2.80;;
48285;SDS011;34102;47.716;10.296;2024-01-15T12:36:09;5.40;;;2.72;;
48285;SDS011;34102;47.716;10.296;2024-01-15T12:38:38;5.65;;;2.85;;
48285;SDS011;34102;47.716;10.296;2024-01-15T12:41:03;5.95;;;2.75;;
48285;SDS011;34102;47.716;10.296;2024-01-15T12:43:29;4.35;;;2.35;;
48285;SDS011;34102;47.716;10.296;2024-01-15T12:45:54;5.03;;;2.13;;
48285;SDS011;34102;47.716;10.296;2024-01-15T12:48:20;5.05;;;2.30;;
48285;SDS011;34102;47.716;10.296;2024-01-15T12:50:48;13.85;;;4.25;;
48285;SDS011;34102;47.716;10.296;2024-01-15T12:53:17;5.30;;;1.85;;
48285;SDS011;34102;47.716;10.296;2024-01-15T12:55:42;4.45;;;2.08;;
48285;SDS011;34102;47.716;10.296;2024-01-15T12:58:08;5.57;;;1.77;;
48285;SDS011;34102;47.716;10.296;2024-01-15T13:00:34;3.80;;;1.98;;
48285;SDS011;34102;47.716;10.296;2024-01-15T13:03:01;3.58;;;1.90;;
48285;SDS011;34102;47.716;10.296;2024-01-15T13:05:28;4.22;;;2.25;;
48285;SDS011;34102;47.716;10.296;2024-01-15T13:07:54;3.10;;;1.63;;
48285;SDS011;34102;47.716;10.296;2024-01-15T13:10:19;3.58;;;1.80;;
48285;SDS011;34102;47.716;10.296;2024-01-15T13:12:45;3.15;;;1.65;;
48285;SDS011;34102;47.716;10.296;2024-01-15T13:15:10;3.53;;;1.80;;
48285;SDS011;34102;47.716;10.296;2024-01-15T13:17:38;3.88;;;1.90;;
48285;SDS011;34102;47.716;10.296;2024-01-15T13:20:06;4.18;;;1.70;;
48285;SDS011;34102;47.716;10.296;2024-01-15T13:22:32;3.22;;;1.48;;
48285;SDS011;34102;47.716;10.296;2024-01-15T13:24:58;2.67;;;1.40;;
48285;SDS011;34102;47.716;10.296;2024-01-15T13:27:24;2.47;;;1.27;;
48285;SDS011;34102;47.716;10.296;2024-01-15T13:29:49;3.70;;;1.60;;
48285;SDS011;34102;47.716;10.296;2024-01-15T13:32:16;4.70;;;1.77;;
48285;SDS011;34102;47.716;10.296;2024-01-15T13:34:43;3.33;;;1.88;;
48285;SDS011;34102;47.716;10.296;2024-01-15T13:37:08;3.15;;;1.33;;
48285;SDS011;34102;47.716;10.296;2024-01-15T13:39:35;3.95;;;1.33;;
48285;SDS011;34102;47.716;10.296;2024-01-15T13:42:02;2.50;;;1.35;;
48285;SDS011;34102;47.716;10.296;2024-01-15T13:44:28;2.10;;;1.20;;
48285;SDS011;34102;47.716;10.296;2024-01-15T13:46:54;3.65;;;1.42;;
48285;SDS011;34102;47.716;10.296;2024-01-15T13:49:21;2.22;;;1.27;;
48285;SDS011;34102;47.716;10.296;2024-01-15T13:51:47;2.92;;;1.58;;
48285;SDS011;34102;47.716;10.296;2024-01-15T13:54:13;2.95;;;1.73;;
48285;SDS011;34102;47.716;10.296;2024-01-15T13:56:38;1.85;;;1.20;;
48285;SDS011;34102;47.716;10.296;2024-01-15T13:59:04;2.92;;;1.75;;
48285;SDS011;34102;47.716;10.296;2024-01-15T14:01:30;3.30;;;1.60;;
48285;SDS011;34102;47.716;10.296;2024-01-15T14:03:58;2.58;;;1.38;;
48285;SDS011;34102;47.716;10.296;2024-01-15T14:06:27;3.38;;;1.63;;
48285;SDS011;34102;47.716;10.296;2024-01-15T14:08:53;4.28;;;1.58;;
48285;SDS011;34102;47.716;10.296;2024-01-15T14:11:18;2.53;;;1.35;;
48285;SDS011;34102;47.716;10.296;2024-01-15T14:13:43;3.35;;;1.92;;
48285;SDS011;34102;47.716;10.296;2024-01-15T14:16:09;2.72;;;1.13;;
48285;SDS011;34102;47.716;10.296;2024-01-15T14:18:34;3.03;;;1.98;;
48285;SDS011;34102;47.716;10.296;2024-01-15T14:21:00;3.05;;;1.38;;
48285;SDS011;34102;47.716;10.296;2024-01-15T14:23:27;2.58;;;1.33;;
48285;SDS011;34102;47.716;10.296;2024-01-15T14:25:52;2.80;;;1.70;;
48285;SDS011;34102;47.716;10.296;2024-01-15T14:28:18;3.72;;;1.75;;
48285;SDS011;34102;47.716;10.296;2024-01-15T14:30:46;3.75;;;2.08;;
48285;SDS011;34102;47.716;10.296;2024-01-15T14:33:12;3.15;;;1.58;;
48285;SDS011;34102;47.716;10.296;2024-01-15T14:35:38;4.70;;;2.50;;
48285;SDS011;34102;47.716;10.296;2024-01-15T14:38:07;5.15;;;2.30;;
48285;SDS011;34102;47.716;10.296;2024-01-15T14:40:33;2.70;;;1.30;;
48285;SDS011;34102;47.716;10.296;2024-01-15T14:42:59;4.20;;;2.00;;
48285;SDS011;34102;47.716;10.296;2024-01-15T14:45:26;3.95;;;2.03;;
48285;SDS011;34102;47.716;10.296;2024-01-15T14:47:52;3.67;;;1.63;;
48285;SDS011;34102;47.716;10.296;2024-01-15T14:50:21;6.43;;;2.78;;
48285;SDS011;34102;47.716;10.296;2024-01-15T14:52:47;4.78;;;2.28;;
48285;SDS011;34102;47.716;10.296;2024-01-15T14:55:14;3.58;;;1.80;;
48285;SDS011;34102;47.716;10.296;2024-01-15T14:57:39;3.72;;;1.45;;
48285;SDS011;34102;47.716;10.296;2024-01-15T15:00:06;3.40;;;1.60;;
48285;SDS011;34102;47.716;10.296;2024-01-15T15:02:33;5.82;;;1.70;;
48285;SDS011;34102;47.716;10.296;2024-01-15T15:05:00;4.15;;;1.70;;
48285;SDS011;34102;47.716;10.296;2024-01-15T15:07:25;3.88;;;1.95;;
48285;SDS011;34102;47.716;10.296;2024-01-15T15:09:50;4.70;;;1.85;;
48285;SDS011;34102;47.716;10.296;2024-01-15T15:12:16;3.20;;;1.63;;
48285;SDS011;34102;47.716;10.296;2024-01-15T15:14:42;3.75;;;1.33;;
48285;SDS011;34102;47.716;10.296;2024-01-15T15:17:10;5.20;;;2.20;;
48285;SDS011;34102;47.716;10.296;2024-01-15T15:19:38;3.10;;;1.73;;
48285;SDS011;34102;47.716;10.296;2024-01-15T15:22:05;3.22;;;1.83;;
48285;SDS011;34102;47.716;10.296;2024-01-15T15:24:31;4.45;;;2.13;;
48285;SDS011;34102;47.716;10.296;2024-01-15T15:26:57;5.00;;;2.35;;
48285;SDS011;34102;47.716;10.296;2024-01-15T15:29:23;3.40;;;1.58;;
48285;SDS011;34102;47.716;10.296;2024-01-15T15:31:51;4.35;;;2.03;;
48285;SDS011;34102;47.716;10.296;2024-01-15T15:34:16;4.40;;;1.67;;
48285;SDS011;34102;47.716;10.296;2024-01-15T15:36:42;5.50;;;2.17;;
48285;SDS011;34102;47.716;10.296;2024-01-15T15:39:07;3.83;;;1.83;;
48285;SDS011;34102;47.716;10.296;2024-01-15T15:41:33;2.95;;;1.58;;
48285;SDS011;34102;47.716;10.296;2024-01-15T15:43:59;4.65;;;1.88;;
48285;SDS011;34102;47.716;10.296;2024-01-15T15:46:24;5.20;;;2.13;;
48285;SDS011;34102;47.716;10.296;2024-01-15T15:48:50;4.10;;;2.28;;
48285;SDS011;34102;47.716;10.296;2024-01-15T15:51:16;6.18;;;2.10;;
48285;SDS011;34102;47.716;10.296;2024-01-15T15:53:42;6.18;;;2.38;;
48285;SDS011;34102;47.716;10.296;2024-01-15T15:56:08;4.45;;;2.40;;
48285;SDS011;34102;47.716;10.296;2024-01-15T15:58:36;7.78;;;3.67;;
48285;SDS011;34102;47.716;10.296;2024-01-15T16:01:01;10.27;;;3.60;;
48285;SDS011;34102;47.716;10.296;2024-01-15T16:03:27;3.42;;;1.80;;
48285;SDS011;34102;47.716;10.296;2024-01-15T16:05:52;4.93;;;2.22;;
48285;SDS011;34102;47.716;10.296;2024-01-15T16:08:17;3.33;;;2.10;;
48285;SDS011;34102;47.716;10.296;2024-01-15T16:10:46;6.28;;;3.05;;
48285;SDS011;34102;47.716;10.296;2024-01-15T16:13:11;5.30;;;2.88;;
48285;SDS011;34102;47.716;10.296;2024-01-15T16:15:37;7.38;;;3.45;;
48285;SDS011;34102;47.716;10.296;2024-01-15T16:18:02;6.60;;;3.30;;
48285;SDS011;34102;47.716;10.296;2024-01-15T16:20:28;5.68;;;3.05;;
48285;SDS011;34102;47.716;10.296;2024-01-15T16:22:53;7.05;;;2.83;;
48285;SDS011;34102;47.716;10.296;2024-01-15T16:25:18;5.72;;;2.60;;
48285;SDS011;34102;47.716;10.296;2024-01-15T16:27:47;9.93;;;4.00;;
48285;SDS011;34102;47.716;10.296;2024-01-15T16:30:14;6.32;;;2.90;;
48285;SDS011;34102;47.716;10.296;2024-01-15T16:32:40;6.57;;;3.08;;
48285;SDS011;34102;47.716;10.296;2024-01-15T16:35:05;6.72;;;3.45;;
48285;SDS011;34102;47.716;10.296;2024-01-15T16:37:33;7.53;;;3.60;;
48285;SDS011;34102;47.716;10.296;2024-01-15T16:40:00;7.68;;;3.92;;
48285;SDS011;34102;47.716;10.296;2024-01-15T16:42:27;7.38;;;3.78;;
48285;SDS011;34102;47.716;10.296;2024-01-15T16:44:53;9.50;;;4.60;;
48285;SDS011;34102;47.716;10.296;2024-01-15T16:47:19;10.35;;;3.83;;
48285;SDS011;34102;47.716;10.296;2024-01-15T16:49:45;8.32;;;3.63;;
48285;SDS011;34102;47.716;10.296;2024-01-15T16:52:10;6.43;;;3.60;;
48285;SDS011;34102;47.716;10.296;2024-01-15T16:54:37;6.18;;;3.38;;
48285;SDS011;34102;47.716;10.296;2024-01-15T16:57:03;9.57;;;3.97;;
48285;SDS011;34102;47.716;10.296;2024-01-15T16:59:28;7.25;;;3.28;;
48285;SDS011;34102;47.716;10.296;2024-01-15T17:01:55;8.52;;;3.28;;
48285;SDS011;34102;47.716;10.296;2024-01-15T17:04:23;9.88;;;3.40;;
48285;SDS011;34102;47.716;10.296;2024-01-15T17:06:49;8.98;;;4.15;;
48285;SDS011;34102;47.716;10.296;2024-01-15T17:09:14;6.13;;;2.60;;
48285;SDS011;34102;47.716;10.296;2024-01-15T17:11:39;7.38;;;3.60;;
48285;SDS011;34102;47.716;10.296;2024-01-15T17:14:05;6.47;;;3.17;;
48285;SDS011;34102;47.716;10.296;2024-01-15T17:16:34;6.07;;;3.22;;
48285;SDS011;34102;47.716;10.296;2024-01-15T17:18:59;7.75;;;4.03;;
48285;SDS011;34102;47.716;10.296;2024-01-15T17:21:25;9.00;;;4.38;;
48285;SDS011;34102;47.716;10.296;2024-01-15T17:23:50;8.20;;;4.43;;
48285;SDS011;34102;47.716;10.296;2024-01-15T17:26:16;8.35;;;4.47;;
48285;SDS011;34102;47.716;10.296;2024-01-15T17:28:41;8.52;;;4.22;;
48285;SDS011;34102;47.716;10.296;2024-01-15T17:31:07;8.60;;;3.67;;
48285;SDS011;34102;47.716;10.296;2024-01-15T17:33:35;9.73;;;4.80;;
48285;SDS011;34102;47.716;10.296;2024-01-15T17:36:00;10.00;;;4.90;;
48285;SDS011;34102;47.716;10.296;2024-01-15T17:38:27;8.93;;;4.72;;
48285;SDS011;34102;47.716;10.296;2024-01-15T17:40:52;10.05;;;4.13;;
48285;SDS011;34102;47.716;10.296;2024-01-15T17:43:18;13.75;;;4.68;;
48285;SDS011;34102;47.716;10.296;2024-01-15T17:45:45;9.50;;;4.20;;
48285;SDS011;34102;47.716;10.296;2024-01-15T17:48:10;10.70;;;5.45;;
48285;SDS011;34102;47.716;10.296;2024-01-15T17:50:36;8.90;;;4.47;;
48285;SDS011;34102;47.716;10.296;2024-01-15T17:53:01;12.98;;;4.35;;
48285;SDS011;34102;47.716;10.296;2024-01-15T17:55:27;5.65;;;2.83;;
48285;SDS011;34102;47.716;10.296;2024-01-15T17:57:52;9.70;;;5.30;;
48285;SDS011;34102;47.716;10.296;2024-01-15T18:00:18;10.65;;;4.78;;
48285;SDS011;34102;47.716;10.296;2024-01-15T18:02:44;9.27;;;4.80;;
48285;SDS011;34102;47.716;10.296;2024-01-15T18:05:09;10.43;;;5.10;;
48285;SDS011;34102;47.716;10.296;2024-01-15T18:07:35;12.63;;;5.57;;
48285;SDS011;34102;47.716;10.296;2024-01-15T18:10:01;9.98;;;4.50;;
48285;SDS011;34102;47.716;10.296;2024-01-15T18:12:28;12.05;;;5.68;;
48285;SDS011;34102;47.716;10.296;2024-01-15T18:14:53;9.02;;;4.35;;
48285;SDS011;34102;47.716;10.296;2024-01-15T18:17:19;7.95;;;4.05;;
48285;SDS011;34102;47.716;10.296;2024-01-15T18:19:46;8.93;;;3.70;;
48285;SDS011;34102;47.716;10.296;2024-01-15T18:22:12;11.32;;;5.53;;
48285;SDS011;34102;47.716;10.296;2024-01-15T18:24:38;10.48;;;5.13;;
48285;SDS011;34102;47.716;10.296;2024-01-15T18:27:04;10.75;;;5.07;;
48285;SDS011;34102;47.716;10.296;2024-01-15T18:29:30;10.15;;;4.88;;
48285;SDS011;34102;47.716;10.296;2024-01-15T18:31:58;10.68;;;5.47;;
48285;SDS011;34102;47.716;10.296;2024-01-15T18:34:24;8.98;;;4.53;;
48285;SDS011;34102;47.716;10.296;2024-01-15T18:36:49;11.25;;;4.60;;
48285;SDS011;34102;47.716;10.296;2024-01-15T18:39:15;8.95;;;4.07;;
48285;SDS011;34102;47.716;10.296;2024-01-15T18:41:42;8.80;;;3.78;;
48285;SDS011;34102;47.716;10.296;2024-01-15T18:44:10;7.63;;;4.05;;
48285;SDS011;34102;47.716;10.296;2024-01-15T18:46:36;8.23;;;4.07;;
48285;SDS011;34102;47.716;10.296;2024-01-15T18:49:03;7.78;;;4.80;;
48285;SDS011;34102;47.716;10.296;2024-01-15T18:51:28;9.63;;;4.18;;
48285;SDS011;34102;47.716;10.296;2024-01-15T18:53:54;8.50;;;3.38;;
48285;SDS011;34102;47.716;10.296;2024-01-15T18:56:21;9.45;;;4.15;;
48285;SDS011;34102;47.716;10.296;2024-01-15T18:58:50;7.57;;;3.33;;
48285;SDS011;34102;47.716;10.296;2024-01-15T19:03:53;4.68;;;2.65;;
48285;SDS011;34102;47.716;10.296;2024-01-15T19:06:19;7.40;;;3.58;;
48285;SDS011;34102;47.716;10.296;2024-01-15T19:08:45;6.15;;;2.80;;
48285;SDS011;34102;47.716;10.296;2024-01-15T19:11:10;5.57;;;2.90;;
48285;SDS011;34102;47.716;10.296;2024-01-15T19:13:36;6.65;;;3.05;;
48285;SDS011;34102;47.716;10.296;2024-01-15T19:16:02;5.47;;;2.80;;
48285;SDS011;34102;47.716;10.296;2024-01-15T19:18:27;7.28;;;2.83;;
48285;SDS011;34102;47.716;10.296;2024-01-15T19:20:53;5.70;;;2.97;;
48285;SDS011;34102;47.716;10.296;2024-01-15T19:23:19;6.00;;;3.00;;
48285;SDS011;34102;47.716;10.296;2024-01-15T19:25:45;4.88;;;2.28;;
48285;SDS011;34102;47.716;10.296;2024-01-15T19:28:10;5.60;;;2.63;;
48285;SDS011;34102;47.716;10.296;2024-01-15T19:30:35;4.50;;;2.30;;
48285;SDS011;34102;47.716;10.296;2024-01-15T19:33:01;3.95;;;2.00;;
48285;SDS011;34102;47.716;10.296;2024-01-15T19:35:27;4.60;;;2.80;;
48285;SDS011;34102;47.716;10.296;2024-01-15T19:37:53;3.45;;;1.65;;
48285;SDS011;34102;47.716;10.296;2024-01-15T19:40:18;4.43;;;1.98;;
48285;SDS011;34102;47.716;10.296;2024-01-15T19:42:43;5.00;;;2.88;;
48285;SDS011;34102;47.716;10.296;2024-01-15T19:45:09;5.18;;;2.38;;
48285;SDS011;34102;47.716;10.296;2024-01-15T19:47:34;4.70;;;2.70;;
48285;SDS011;34102;47.716;10.296;2024-01-15T19:50:02;5.85;;;2.30;;
48285;SDS011;34102;47.716;10.296;2024-01-15T19:52:28;5.60;;;2.35;;
48285;SDS011;34102;47.716;10.296;2024-01-15T19:54:53;5.75;;;2.70;;
48285;SDS011;34102;47.716;10.296;2024-01-15T19:57:19;6.50;;;2.88;;
48285;SDS011;34102;47.716;10.296;2024-01-15T19:59:44;6.93;;;3.30;;
48285;SDS011;34102;47.716;10.296;2024-01-15T20:02:10;4.68;;;2.60;;
48285;SDS011;34102;47.716;10.296;2024-01-15T20:04:35;7.63;;;2.78;;
48285;SDS011;34102;47.716;10.296;2024-01-15T20:07:01;6.43;;;2.60;;
48285;SDS011;34102;47.716;10.296;2024-01-15T20:09:26;7.43;;;3.63;;
48285;SDS011;34102;47.716;10.296;2024-01-15T20:11:53;6.43;;;2.65;;
48285;SDS011;34102;47.716;10.296;2024-01-15T20:14:18;5.20;;;2.40;;
48285;SDS011;34102;47.716;10.296;2024-01-15T20:16:43;5.00;;;2.40;;
48285;SDS011;34102;47.716;10.296;2024-01-15T20:19:09;6.40;;;2.67;;
48285;SDS011;34102;47.716;10.296;2024-01-15T20:21:34;6.10;;;2.67;;
48285;SDS011;34102;47.716;10.296;2024-01-15T20:24:01;5.38;;;2.80;;
48285;SDS011;34102;47.716;10.296;2024-01-15T20:26:28;6.93;;;3.50;;
48285;SDS011;34102;47.716;10.296;2024-01-15T20:31:29;5.15;;;2.42;;
48285;SDS011;34102;47.716;10.296;2024-01-15T20:33:55;6.18;;;3.05;;
48285;SDS011;34102;47.716;10.296;2024-01-15T20:36:20;6.05;;;2.78;;
48285;SDS011;34102;47.716;10.296;2024-01-15T20:38:45;6.05;;;2.70;;
48285;SDS011;34102;47.716;10.296;2024-01-15T20:41:11;6.22;;;3.13;;
48285;SDS011;34102;47.716;10.296;2024-01-15T20:43:36;6.32;;;2.97;;
48285;SDS011;34102;47.716;10.296;2024-01-15T20:46:02;5.72;;;3.25;;
48285;SDS011;34102;47.716;10.296;2024-01-15T20:48:27;5.63;;;3.03;;
48285;SDS011;34102;47.716;10.296;2024-01-15T20:50:53;7.38;;;3.40;;
48285;SDS011;34102;47.716;10.296;2024-01-15T20:53:20;6.97;;;3.80;;
48285;SDS011;34102;47.716;10.296;2024-01-15T20:55:45;7.95;;;4.13;;
48285;SDS011;34102;47.716;10.296;2024-01-15T20:58:11;5.85;;;3.10;;
48285;SDS011;34102;47.716;10.296;2024-01-15T21:00:37;8.60;;;3.70;;
48285;SDS011;34102;47.716;10.296;2024-01-15T21:03:04;6.20;;;3.03;;
48285;SDS011;34102;47.716;10.296;2024-01-15T21:05:29;5.78;;;3.20;;
48285;SDS011;34102;47.716;10.296;2024-01-15T21:07:56;6.47;;;3.45;;
48285;SDS011;34102;47.716;10.296;2024-01-15T21:10:22;8.88;;;3.88;;
48285;SDS011;34102;47.716;10.296;2024-01-15T21:12:48;10.10;;;4.25;;
48285;SDS011;34102;47.716;10.296;2024-01-15T21:15:15;7.57;;;4.05;;
48285;SDS011;34102;47.716;10.296;2024-01-15T21:17:41;6.85;;;3.75;;
48285;SDS011;34102;47.716;10.296;2024-01-15T21:20:07;7.32;;;3.35;;
48285;SDS011;34102;47.716;10.296;2024-01-15T21:22:36;6.82;;;2.97;;
48285;SDS011;34102;47.716;10.296;2024-01-15T21:25:02;8.30;;;3.13;;
48285;SDS011;34102;47.716;10.296;2024-01-15T21:27:28;5.40;;;3.05;;
48285;SDS011;34102;47.716;10.296;2024-01-15T21:29:54;5.07;;;2.95;;
48285;SDS011;34102;47.716;10.296;2024-01-15T21:32:19;7.68;;;3.60;;
48285;SDS011;34102;47.716;10.296;2024-01-15T21:34:45;9.98;;;4.00;;
48285;SDS011;34102;47.716;10.296;2024-01-15T21:37:10;7.80;;;3.92;;
48285;SDS011;34102;47.716;10.296;2024-01-15T21:39:36;7.53;;;4.15;;
48285;SDS011;34102;47.716;10.296;2024-01-15T21:42:03;8.05;;;3.35;;
48285;SDS011;34102;47.716;10.296;2024-01-15T21:44:28;7.82;;;3.92;;
48285;SDS011;34102;47.716;10.296;2024-01-15T21:46:54;5.18;;;3.00;;
48285;SDS011;34102;47.716;10.296;2024-01-15T21:49:19;10.07;;;4.00;;
48285;SDS011;34102;47.716;10.296;2024-01-15T21:51:44;7.05;;;2.83;;
48285;SDS011;34102;47.716;10.296;2024-01-15T21:54:10;7.70;;;3.17;;
48285;SDS011;34102;47.716;10.296;2024-01-15T21:56:35;4.72;;;2.55;;
48285;SDS011;34102;47.716;10.296;2024-01-15T21:59:01;6.32;;;3.25;;
48285;SDS011;34102;47.716;10.296;2024-01-15T22:01:27;5.47;;;3.08;;
48285;SDS011;34102;47.716;10.296;2024-01-15T22:03:53;5.68;;;2.97;;
48285;SDS011;34102;47.716;10.296;2024-01-15T22:06:18;4.70;;;2.50;;
48285;SDS011;34102;47.716;10.296;2024-01-15T22:08:44;5.82;;;2.90;;
48285;SDS011;34102;47.716;10.296;2024-01-15T22:11:14;6.40;;;2.80;;
48285;SDS011;34102;47.716;10.296;2024-01-15T22:13:39;6.25;;;2.90;;
48285;SDS011;34102;47.716;10.296;2024-01-15T22:16:06;7.13;;;3.13;;
48285;SDS011;34102;47.716;10.296;2024-01-15T22:18:31;6.65;;;3.58;;
48285;SDS011;34102;47.716;10.296;2024-01-15T22:20:59;5.90;;;2.45;;
48285;SDS011;34102;47.716;10.296;2024-01-15T22:23:25;5.95;;;3.25;;
48285;SDS011;34102;47.716;10.296;2024-01-15T22:25:50;4.70;;;2.90;;
48285;SDS011;34102;47.716;10.296;2024-01-15T22:28:15;6.68;;;3.10;;
